Relevés horaires Gösgen (Suisse)


Relevés horaires à Gösgen - Jeudi 12 Juill. 2018
Heure UTC1 Température [°C] Vent [km/h] Hum. [%] Pres.4 [hPa] Visi. [Km] Nébu. [octa] Préc.5 [mm] Cond.
2m. Res. Ros. Dir.2 Vit. Moy. Raf.3
23:00 14.4 14.4 12.2 N 0.0 -- -- 87 1019.2 -- -- -- --
22:00 17.1 17.1 12.3 E 0.0 -- -- 73 1018.6 -- -- -- --
21:00 19.4 19.4 11.6 N 5.6 -- 22.2 61 1018.1(1.6/3h) -- -- -- --
20:00 20.4 20.4 11.0 N 3.7 -- -- 55 1017.4 -- -- -- --
19:00 22.2 22.2 10.6 NNO 9.3 -- -- 48 1016.4 -- -- -- --
18:00 24.1 24.1 10.3 NO 11.1 -- 22.2 42 1015.7(0.4/3h) -- -- 0/12h
--
17:00 24.8 24.8 9.4 NNO 11.1 -- -- 38 1015.3 -- -- -- --
16:00 25.4 25.4 9.7 ONO 13.0 -- -- 37 1015.1 -- -- -- --
15:00 25.6 25.6 10.8 ONO 5.6 -- 22.2 39 1015(-0.7/3h) -- -- -- --
14:00 25.6 25.6 10.7 SE 3.7 -- -- 39 1015.3 -- -- -- --
13:00 24.6 24.6 9.6 E 7.4 -- -- 39 1015.6 -- -- -- --
12:00 22.8 22.8 7.3 ESE 7.4 -- 18.5 37 1016.2(-0.3/3h) -- -- 0/6h
--
11:00 23.0 23.0 9.6 E 9.3 -- -- 43 1016.4 -- -- -- --
10:00 22.1 22.1 10.0 E 5.6 -- -- 46 1016.5 -- -- -- --
09:00 20.5 20.5 7.5 NNE 5.6 -- 13.0 43 1016.9(-0.1/3h) -- -- -- --
08:00 18.7 18.7 9.0 E 7.4 -- -- 53 1017.3 -- -- -- --
07:00 16.3 16.3 9.2 SE 3.7 -- -- 63 1017.7 -- -- -- --
06:00 14.0 14.0 9.9 SE 1.9 -- 3.7 76 1018(0.3/3h) -- -- 0/12h
0/24h
--
05:00 11.7 11.7 9.9 NNO 0.0 -- -- 89 1018.4 -- -- -- --
04:00 10.1 10.1 8.9 NNO 0.0 -- -- 92 1018.4 -- -- -- --
03:00 10.1 10.1 8.9 NNO 0.0 -- 3.7 92 1018.4(-0.2/3h) -- -- -- --
02:00 11.0 11.0 9.6 N 0.0 -- -- 91 1018.1 -- -- -- --
01:00 12.4 12.4 10.3 NNO 0.0 -- -- 87 1018 -- -- -- --
00:00 12.0 12.0 9.5 NE 0.0 -- 11.1 85 1018.3(0.0/3h) -- -- 0/6h
--

1 Coordinated Universal Time. Actuellement il est 18:00 locale et 16:00 UTC.

2 Le vent souffle depuis la direction indiquée vers la direction oposée.

3 Les rafales max. sont disponible 40 min après l'heure du relevé.

4 Pour les stations d'altitude (plus de 600m) le géopotentiel du niveau le plus proche de la pression obligatoire est indiqué.

5 Les stations disposant d'un diffuseur peuvent indiquer "trace". Cela signifie que des précipitations ont touchés le sol mais que la quantité est inférieure à 0.1 mm.

Récapitulatif de la journée
Température [°C] Vent [km/h] Ensoleillement4 [h] Precipitations totale5 [mm] Pression [Hpa]
Min1 Max.2 Moy.3 Max. Min Max.
9.8 26.0 0 22.2 14 h 0 min 0 1015.0 1019.2

1 Température minimale relevée entre 18:00 UTC la veille et 18:00 UTC le jour donné.

2 Température maximale relevée entre 06:00 UTC le jour donné et 06:00 UTC le lendemain.

3 Vent moyen de la journée basé sur les relevés horaires.

4 Ensoleillement en heures relevé entre 06:00 UTC la veille et 06:00 UTC le jour donné.

5 Précipitations totales tombées entre 06:00 UTC la jour donné et 06:00 UTC le lendemain.

Graphiques horaires